createdAt,value
2023-04-18T00:01:15.753Z,2.00
2023-04-18T00:03:46.070Z,2.10
2023-04-18T00:06:14.086Z,2.00
2023-04-18T00:08:41.313Z,2.20
2023-04-18T00:11:08.486Z,2.30
2023-04-18T00:13:35.788Z,2.20
2023-04-18T00:16:02.868Z,2.30
2023-04-18T00:18:30.190Z,2.30
2023-04-18T00:20:57.152Z,2.40
2023-04-18T00:23:28.207Z,2.60
2023-04-18T00:25:55.740Z,2.00
2023-04-18T00:28:22.880Z,2.40
2023-04-18T00:30:50.157Z,2.60
2023-04-18T00:33:17.391Z,2.70
2023-04-18T00:35:44.661Z,2.60
2023-04-18T00:38:11.599Z,2.50
2023-04-18T00:40:41.311Z,2.40
2023-04-18T00:43:08.657Z,2.30
2023-04-18T00:45:35.950Z,2.00
2023-04-18T00:48:03.277Z,2.30
2023-04-18T00:50:30.707Z,2.00
2023-04-18T00:52:57.819Z,1.90
2023-04-18T00:55:24.842Z,1.80
2023-04-18T00:57:52.193Z,1.70
2023-04-18T01:00:19.411Z,1.80
2023-04-18T01:02:50.156Z,1.80
2023-04-18T01:05:18.876Z,1.90
2023-04-18T01:07:45.832Z,1.50
2023-04-18T01:10:12.723Z,1.50
2023-04-18T01:12:40.445Z,1.80
2023-04-18T01:15:07.874Z,1.60
2023-04-18T01:17:35.668Z,1.60
2023-04-18T01:20:04.969Z,1.30
2023-04-18T01:22:33.381Z,1.40
2023-04-18T01:25:00.229Z,1.10
2023-04-18T01:27:27.119Z,1.20
2023-04-18T01:29:54.141Z,1.20
2023-04-18T01:32:22.069Z,1.40
2023-04-18T01:34:48.988Z,1.30
2023-04-18T01:37:15.904Z,1.20
2023-04-18T01:39:42.829Z,1.40
2023-04-18T01:42:09.784Z,1.30
2023-04-18T01:44:37.945Z,1.00
2023-04-18T01:47:05.347Z,1.30
2023-04-18T01:49:33.028Z,1.30
2023-04-18T01:51:59.893Z,1.20
2023-04-18T01:54:26.945Z,1.10
2023-04-18T01:56:53.853Z,1.20
2023-04-18T01:59:20.764Z,1.10
2023-04-18T02:01:47.927Z,1.20
2023-04-18T02:04:15.195Z,1.20
2023-04-18T02:06:42.525Z,0.80
2023-04-18T02:09:10.893Z,1.20
2023-04-18T02:11:37.960Z,1.10
2023-04-18T02:14:04.934Z,1.00
2023-04-18T02:16:32.785Z,1.10
2023-04-18T02:19:00.278Z,1.20
2023-04-18T02:21:27.332Z,1.10
2023-04-18T02:23:54.205Z,1.00
2023-04-18T02:26:22.086Z,1.00
2023-04-18T02:28:49.035Z,1.10
2023-04-18T02:31:16.826Z,1.20
2023-04-18T02:33:44.282Z,1.10
2023-04-18T02:36:12.411Z,1.30
2023-04-18T02:38:39.280Z,1.10
2023-04-18T02:41:06.228Z,1.20
2023-04-18T02:43:33.137Z,1.20
2023-04-18T02:46:02.124Z,1.10
2023-04-18T02:48:29.297Z,1.30
2023-04-18T02:51:03.372Z,1.30
2023-04-18T02:53:30.825Z,1.40
2023-04-18T02:55:58.287Z,1.30
2023-04-18T02:58:31.384Z,1.20
2023-04-18T03:01:21.112Z,0.90
2023-04-18T03:03:55.686Z,1.00
2023-04-18T03:06:31.772Z,1.00
2023-04-18T03:09:00.933Z,1.10
2023-04-18T03:11:27.981Z,1.40
2023-04-18T03:13:55.469Z,1.10
2023-04-18T03:16:23.164Z,1.10
2023-04-18T03:18:50.597Z,1.40
2023-04-18T03:21:18.239Z,1.00
2023-04-18T03:23:45.275Z,1.40
2023-04-18T03:26:13.905Z,1.20
2023-04-18T03:28:41.284Z,1.40
2023-04-18T03:31:08.611Z,1.10
2023-04-18T03:33:36.830Z,1.10
2023-04-18T03:36:08.867Z,1.00
2023-04-18T03:38:40.595Z,1.00
2023-04-18T03:41:07.822Z,1.10
2023-04-18T03:43:36.250Z,1.20
2023-04-18T03:46:03.339Z,1.30
2023-04-18T03:48:31.009Z,1.10
2023-04-18T03:51:00.236Z,1.20
2023-04-18T03:53:27.288Z,1.20
2023-04-18T03:55:56.400Z,1.10
2023-04-18T03:58:26.101Z,1.10
2023-04-18T04:00:53.513Z,1.00
2023-04-18T04:03:21.318Z,1.40
2023-04-18T04:05:48.344Z,1.20
2023-04-18T04:08:16.589Z,1.20
2023-04-18T04:10:44.939Z,1.10
2023-04-18T04:13:11.945Z,1.10
2023-04-18T04:15:39.821Z,1.20
2023-04-18T04:18:07.776Z,1.10
2023-04-18T04:20:36.401Z,1.10
2023-04-18T04:23:08.994Z,1.10
2023-04-18T04:25:36.637Z,1.30
2023-04-18T04:28:08.299Z,1.10
2023-04-18T04:30:44.027Z,1.10
2023-04-18T04:33:11.674Z,1.00
2023-04-18T04:35:39.032Z,0.80
2023-04-18T04:38:07.407Z,0.90
2023-04-18T04:40:40.584Z,0.90
2023-04-18T04:43:20.699Z,1.20
2023-04-18T04:45:53.184Z,1.00
2023-04-18T04:48:24.517Z,1.40
2023-04-18T04:50:53.250Z,1.10
2023-04-18T04:53:20.221Z,1.00
2023-04-18T04:55:47.194Z,1.20
2023-04-18T04:58:15.461Z,1.00
2023-04-18T05:01:07.753Z,1.00
2023-04-18T05:03:36.477Z,1.00
2023-04-18T05:06:03.889Z,0.90
2023-04-18T05:08:30.865Z,1.10
2023-04-18T05:10:58.100Z,0.90
2023-04-18T05:13:25.221Z,1.10
2023-04-18T05:15:52.835Z,0.80
2023-04-18T05:18:20.896Z,0.80
2023-04-18T05:20:47.821Z,0.80
2023-04-18T05:23:14.857Z,0.90
2023-04-18T05:25:41.722Z,0.90
2023-04-18T05:28:08.757Z,0.90
2023-04-18T05:30:35.920Z,0.90
2023-04-18T05:33:03.338Z,1.00
2023-04-18T05:35:30.900Z,1.00
2023-04-18T05:37:58.433Z,0.70
2023-04-18T05:40:27.348Z,0.90
2023-04-18T05:42:54.558Z,0.90
2023-04-18T05:45:21.573Z,0.60
2023-04-18T05:47:48.613Z,0.80
2023-04-18T05:50:15.552Z,0.50
2023-04-18T05:52:42.623Z,0.70
2023-04-18T05:55:10.135Z,0.70
2023-04-18T05:57:38.327Z,0.60
2023-04-18T06:00:11.688Z,0.80
2023-04-18T06:02:41.397Z,0.70
2023-04-18T06:05:09.313Z,0.50
2023-04-18T06:07:37.027Z,0.60
2023-04-18T06:10:05.755Z,0.80
2023-04-18T06:12:32.939Z,0.60
2023-04-18T06:15:00.181Z,0.60
2023-04-18T06:17:27.266Z,0.60
2023-04-18T06:19:54.384Z,0.70
2023-04-18T06:22:21.373Z,1.00
2023-04-18T06:24:48.269Z,0.60
2023-04-18T06:27:27.919Z,0.60
2023-04-18T06:29:55.307Z,0.50
2023-04-18T06:32:23.858Z,0.50
2023-04-18T06:34:51.116Z,0.60
2023-04-18T06:37:18.134Z,0.70
2023-04-18T06:39:45.136Z,0.60
2023-04-18T06:42:13.572Z,0.50
2023-04-18T06:44:44.681Z,0.50
2023-04-18T06:47:11.798Z,0.60
2023-04-18T06:49:39.288Z,0.50
2023-04-18T06:52:06.685Z,0.40
2023-04-18T06:54:34.301Z,0.60
2023-04-18T06:57:03.577Z,0.40
2023-04-18T06:59:30.927Z,0.40
2023-04-18T07:01:58.544Z,0.60
2023-04-18T07:04:25.546Z,0.60
2023-04-18T07:06:52.882Z,0.70
2023-04-18T07:09:20.246Z,0.50
2023-04-18T07:11:47.172Z,0.50
2023-04-18T07:14:14.207Z,0.50
2023-04-18T07:16:41.542Z,0.50
2023-04-18T07:19:08.645Z,0.50
2023-04-18T07:21:37.815Z,0.60
2023-04-18T07:24:05.060Z,0.50
2023-04-18T07:26:32.399Z,0.70
2023-04-18T07:28:59.346Z,0.70
2023-04-18T07:31:28.781Z,0.50
2023-04-18T07:33:55.740Z,0.60
2023-04-18T07:36:22.767Z,0.50
2023-04-18T07:38:50.148Z,0.70
2023-04-18T07:41:17.004Z,0.50
2023-04-18T07:43:45.087Z,0.50
2023-04-18T07:46:12.150Z,0.50
2023-04-18T07:48:39.463Z,0.60
2023-04-18T07:51:06.705Z,0.70
2023-04-18T07:53:35.262Z,0.50
2023-04-18T07:56:02.199Z,0.50
2023-04-18T07:58:29.582Z,0.70
2023-04-18T08:00:56.707Z,0.40
2023-04-18T08:03:24.023Z,0.50
2023-04-18T08:05:52.025Z,0.50
2023-04-18T08:08:19.194Z,0.40
2023-04-18T08:10:47.376Z,0.70
2023-04-18T08:13:14.506Z,0.80
2023-04-18T08:15:41.473Z,0.50
2023-04-18T08:18:08.456Z,0.50
2023-04-18T08:20:37.329Z,0.30
2023-04-18T08:23:07.876Z,0.60
2023-04-18T08:25:36.812Z,0.50
2023-04-18T08:28:06.748Z,0.60
2023-04-18T08:30:34.148Z,0.40
2023-04-18T08:33:01.634Z,0.70
2023-04-18T08:35:28.979Z,0.80
2023-04-18T08:37:56.180Z,0.30
2023-04-18T08:40:23.427Z,0.40
2023-04-18T08:42:51.432Z,0.40
2023-04-18T08:45:18.760Z,0.50
2023-04-18T08:47:46.141Z,0.40
2023-04-18T08:50:13.217Z,0.40
2023-04-18T08:52:40.343Z,0.50
2023-04-18T08:55:08.801Z,0.50
2023-04-18T08:57:35.961Z,0.40
2023-04-18T09:00:08.188Z,0.40
2023-04-18T09:02:39.200Z,0.60
2023-04-18T09:05:18.931Z,0.50
2023-04-18T09:07:46.803Z,0.40
2023-04-18T09:10:13.994Z,0.80
2023-04-18T09:12:50.423Z,0.80
2023-04-18T09:15:20.482Z,0.70
2023-04-18T09:17:53.297Z,0.60
2023-04-18T09:20:37.888Z,0.70
2023-04-18T09:23:10.750Z,0.70
2023-04-18T09:25:44.537Z,0.70
2023-04-18T09:28:28.372Z,0.50
2023-04-18T09:31:00.249Z,0.60
2023-04-18T09:33:34.094Z,0.50
2023-04-18T09:36:20.932Z,0.50
2023-04-18T09:38:53.711Z,0.50
2023-04-18T09:41:25.387Z,0.50
2023-04-18T09:44:14.927Z,0.60
2023-04-18T09:46:46.599Z,0.70
2023-04-18T09:51:42.234Z,0.50
2023-04-18T09:54:10.885Z,0.60
2023-04-18T09:56:38.189Z,0.70
2023-04-18T09:59:09.115Z,0.50
2023-04-18T10:01:36.597Z,0.60
2023-04-18T10:04:06.488Z,0.60
2023-04-18T10:06:34.078Z,0.70
2023-04-18T10:09:03.472Z,0.70
2023-04-18T10:11:31.489Z,1.00
2023-04-18T10:14:02.193Z,0.80
2023-04-18T10:16:29.597Z,0.80
2023-04-18T10:18:56.669Z,0.60
2023-04-18T10:21:23.787Z,0.50
2023-04-18T10:23:51.004Z,0.70
2023-04-18T10:26:18.029Z,0.70
2023-04-18T10:28:58.080Z,0.60
2023-04-18T10:31:29.113Z,0.60
2023-04-18T10:34:05.091Z,0.80
2023-04-18T10:36:33.468Z,0.60
2023-04-18T10:39:03.192Z,1.10
2023-04-18T10:41:32.073Z,1.00
2023-04-18T10:44:15.127Z,0.90
2023-04-18T10:46:43.920Z,0.70
2023-04-18T10:49:20.695Z,0.80
2023-04-18T10:51:49.618Z,0.90
2023-04-18T10:54:36.064Z,0.70
2023-04-18T10:57:04.252Z,0.80
2023-04-18T10:59:34.252Z,0.70
2023-04-18T11:02:19.826Z,0.80
2023-04-18T11:04:57.694Z,0.90
2023-04-18T11:07:34.152Z,0.70
2023-04-18T11:10:01.978Z,0.90
2023-04-18T11:12:35.944Z,0.80
2023-04-18T11:15:08.255Z,0.80
2023-04-18T11:17:38.494Z,0.80
2023-04-18T11:20:11.193Z,0.70
2023-04-18T11:22:52.674Z,0.80
2023-04-18T11:25:24.117Z,0.90
2023-04-18T11:27:55.765Z,1.10
2023-04-18T11:32:49.700Z,0.90
2023-04-18T11:35:16.728Z,1.10
2023-04-18T11:37:45.729Z,1.00
2023-04-18T11:40:14.221Z,1.00
2023-04-18T11:42:42.462Z,0.80
2023-04-18T11:45:11.852Z,1.00
2023-04-18T11:47:39.929Z,0.90
2023-04-18T11:50:08.099Z,0.80
2023-04-18T11:58:02.713Z,0.80
2023-04-18T12:00:34.785Z,0.80
2023-04-18T12:05:39.650Z,0.60
2023-04-18T12:08:20.101Z,0.60
2023-04-18T12:10:48.250Z,1.00
2023-04-18T12:13:15.373Z,0.80
2023-04-18T12:15:44.641Z,0.90
2023-04-18T12:18:13.024Z,0.90
2023-04-18T12:20:47.575Z,1.00
2023-04-18T12:23:34.453Z,0.90
2023-04-18T12:26:03.447Z,0.90
2023-04-18T12:28:30.976Z,0.70
2023-04-18T12:30:58.449Z,0.70
2023-04-18T12:33:25.609Z,0.70
2023-04-18T12:35:53.104Z,0.70
2023-04-18T12:38:24.030Z,0.80
2023-04-18T12:40:51.444Z,0.90
2023-04-18T12:43:19.003Z,0.70
2023-04-18T12:45:46.449Z,1.00
2023-04-18T12:48:13.601Z,0.70
2023-04-18T12:50:41.188Z,0.70
2023-04-18T12:53:08.305Z,1.10
2023-04-18T12:55:35.534Z,1.00
2023-04-18T12:58:02.827Z,1.10
2023-04-18T13:00:31.348Z,0.80
2023-04-18T13:02:58.988Z,0.90
2023-04-18T13:05:28.066Z,0.80
2023-04-18T13:08:08.444Z,1.00
2023-04-18T13:10:43.811Z,0.90
2023-04-18T13:13:11.149Z,1.10
2023-04-18T13:15:38.788Z,0.90
2023-04-18T13:18:06.734Z,1.20
2023-04-18T13:20:34.647Z,1.40
2023-04-18T13:23:04.728Z,1.40
2023-04-18T13:25:32.074Z,1.40
2023-04-18T13:28:01.144Z,1.20
2023-04-18T13:30:28.468Z,1.20
2023-04-18T13:32:55.786Z,1.00
2023-04-18T13:35:24.679Z,1.60
2023-04-18T13:37:51.814Z,1.20
2023-04-18T13:40:19.186Z,1.40
2023-04-18T13:42:46.418Z,1.50
2023-04-18T13:45:13.594Z,1.40
2023-04-18T13:47:40.817Z,1.30
2023-04-18T13:50:09.312Z,1.20
2023-04-18T13:52:36.598Z,1.70
2023-04-18T13:55:04.347Z,1.70
2023-04-18T13:57:34.848Z,1.40
2023-04-18T14:00:01.778Z,1.50
2023-04-18T14:02:39.493Z,1.20
2023-04-18T14:05:07.758Z,1.20
2023-04-18T14:07:35.902Z,1.30
2023-04-18T14:10:03.297Z,1.30
2023-04-18T14:12:31.612Z,1.20
2023-04-18T14:14:58.719Z,1.00
2023-04-18T14:17:26.202Z,1.10
2023-04-18T14:19:53.428Z,1.40
2023-04-18T14:22:20.729Z,1.70
2023-04-18T14:24:47.771Z,1.80
2023-04-18T14:27:15.297Z,1.50
2023-04-18T14:29:42.403Z,1.80
2023-04-18T14:32:09.571Z,2.10
2023-04-18T14:34:38.214Z,2.20
2023-04-18T14:37:06.569Z,1.70
2023-04-18T14:39:34.034Z,1.80
2023-04-18T14:42:01.770Z,1.60
2023-04-18T14:44:29.693Z,1.80
2023-04-18T14:46:56.701Z,1.60
2023-04-18T14:49:23.573Z,1.80
2023-04-18T14:51:50.393Z,1.70
2023-04-18T14:54:17.571Z,1.70
2023-04-18T14:56:44.464Z,1.50
2023-04-18T14:59:16.478Z,1.50
2023-04-18T15:01:43.968Z,1.80
2023-04-18T15:04:11.213Z,1.80
2023-04-18T15:06:38.925Z,1.80
2023-04-18T15:09:06.768Z,2.40
2023-04-18T15:11:33.874Z,2.90
2023-04-18T15:14:00.837Z,2.40
2023-04-18T15:16:27.820Z,2.10
2023-04-18T15:18:54.785Z,2.40
2023-04-18T15:21:21.707Z,2.20
2023-04-18T15:23:48.703Z,2.00
2023-04-18T15:26:15.990Z,2.10
2023-04-18T15:28:43.096Z,2.10
2023-04-18T15:31:11.033Z,2.00
2023-04-18T15:33:38.404Z,2.20
2023-04-18T15:36:05.649Z,2.00
2023-04-18T15:38:33.206Z,1.60
2023-04-18T15:41:00.670Z,2.10
2023-04-18T15:43:28.284Z,2.00
2023-04-18T15:45:56.276Z,1.80
2023-04-18T15:48:23.660Z,2.10
2023-04-18T15:50:51.443Z,1.40
2023-04-18T15:53:18.942Z,1.30
2023-04-18T15:55:48.899Z,1.20
2023-04-18T15:58:15.952Z,1.30
2023-04-18T16:00:44.059Z,1.30
2023-04-18T16:03:11.277Z,1.30
2023-04-18T16:05:38.376Z,1.30
2023-04-18T16:08:05.808Z,1.40
2023-04-18T16:10:32.871Z,1.00
2023-04-18T16:13:00.257Z,1.40
2023-04-18T16:15:27.350Z,1.50
2023-04-18T16:17:55.028Z,1.20
2023-04-18T16:20:22.314Z,1.20
2023-04-18T16:22:49.266Z,1.20
2023-04-18T16:25:16.347Z,1.20
2023-04-18T16:27:43.377Z,1.20
2023-04-18T16:30:10.525Z,1.40
2023-04-18T16:32:38.261Z,1.50
2023-04-18T16:35:07.871Z,1.50
2023-04-18T16:37:34.930Z,1.50
2023-04-18T16:40:02.741Z,1.30
2023-04-18T16:42:30.017Z,1.40
2023-04-18T16:44:56.951Z,1.30
2023-04-18T16:47:24.056Z,1.40
2023-04-18T16:49:51.775Z,1.30
2023-04-18T16:52:18.922Z,1.60
2023-04-18T16:54:46.197Z,1.40
2023-04-18T16:57:13.306Z,1.40
2023-04-18T16:59:41.893Z,1.50
2023-04-18T17:02:09.037Z,1.40
2023-04-18T17:04:36.928Z,1.30
2023-04-18T17:07:03.973Z,1.40
2023-04-18T17:09:31.021Z,1.30
2023-04-18T17:11:58.644Z,1.50
2023-04-18T17:14:25.665Z,1.80
2023-04-18T17:16:53.611Z,2.00
2023-04-18T17:19:21.396Z,2.20
2023-04-18T17:21:49.311Z,2.00
2023-04-18T17:24:18.787Z,1.90
2023-04-18T17:26:45.862Z,2.20
2023-04-18T17:29:13.128Z,1.90
2023-04-18T17:31:40.503Z,1.90
2023-04-18T17:34:07.409Z,1.40
2023-04-18T17:36:34.778Z,1.50
2023-04-18T17:39:11.013Z,1.50
2023-04-18T17:41:38.615Z,1.30
2023-04-18T17:44:06.677Z,1.40
2023-04-18T17:46:34.282Z,1.40
2023-04-18T17:49:01.433Z,1.60
2023-04-18T17:51:28.495Z,1.50
2023-04-18T17:53:55.431Z,1.60
2023-04-18T17:56:22.798Z,1.80
2023-04-18T17:58:49.978Z,1.60
2023-04-18T18:01:24.942Z,1.40
2023-04-18T18:03:53.630Z,1.30
2023-04-18T18:06:21.123Z,1.50
2023-04-18T18:08:48.264Z,1.30
2023-04-18T18:11:15.264Z,1.00
2023-04-18T18:13:42.451Z,1.60
2023-04-18T18:16:09.859Z,1.30
2023-04-18T18:18:38.158Z,1.10
2023-04-18T18:21:05.153Z,1.10
2023-04-18T18:23:32.633Z,1.40
2023-04-18T18:25:59.607Z,1.40
2023-04-18T18:28:26.672Z,1.20
2023-04-18T18:30:54.092Z,1.20
2023-04-18T18:33:21.199Z,1.10
2023-04-18T18:35:48.268Z,1.40
2023-04-18T18:38:15.233Z,1.30
2023-04-18T18:40:42.147Z,1.30
2023-04-18T18:43:09.156Z,1.50
2023-04-18T18:45:36.243Z,1.50
2023-04-18T18:48:04.050Z,1.40
2023-04-18T18:50:31.208Z,1.50
2023-04-18T18:52:58.196Z,1.30
2023-04-18T18:55:25.250Z,1.70
2023-04-18T18:57:52.223Z,1.50
2023-04-18T19:00:19.573Z,1.40
2023-04-18T19:02:47.036Z,1.30
2023-04-18T19:05:14.138Z,1.50
2023-04-18T19:07:42.476Z,1.60
2023-04-18T19:10:10.234Z,1.40
2023-04-18T19:12:37.961Z,1.40
2023-04-18T19:15:06.050Z,1.50
2023-04-18T19:17:33.144Z,1.90
2023-04-18T19:20:01.581Z,1.50
2023-04-18T19:22:29.753Z,1.50
2023-04-18T19:24:57.334Z,1.30
2023-04-18T19:27:24.373Z,1.40
2023-04-18T19:29:51.406Z,1.70
2023-04-18T19:32:18.391Z,1.00
2023-04-18T19:34:45.727Z,1.40
2023-04-18T19:37:12.637Z,1.40
2023-04-18T19:39:39.652Z,1.20
2023-04-18T19:42:07.516Z,1.50
2023-04-18T19:44:35.041Z,1.30
2023-04-18T19:47:02.055Z,1.70
2023-04-18T19:49:29.141Z,1.50
2023-04-18T19:51:56.077Z,1.60
2023-04-18T19:54:23.009Z,1.70
2023-04-18T19:56:50.141Z,1.70
2023-04-18T19:59:17.255Z,1.60
2023-04-18T20:01:44.350Z,2.10
2023-04-18T20:04:11.564Z,2.30
2023-04-18T20:06:40.647Z,1.40
2023-04-18T20:09:13.276Z,1.60
2023-04-18T20:11:41.566Z,1.60
2023-04-18T20:14:08.604Z,1.40
2023-04-18T20:16:35.857Z,1.70
2023-04-18T20:19:03.529Z,1.40
2023-04-18T20:21:30.522Z,1.40
2023-04-18T20:23:58.469Z,1.60
2023-04-18T20:26:25.422Z,1.50
2023-04-18T20:28:53.871Z,1.70
2023-04-18T20:31:21.154Z,1.50
2023-04-18T20:33:48.512Z,1.60
2023-04-18T20:36:17.756Z,1.50
2023-04-18T20:38:44.812Z,1.50
2023-04-18T20:41:15.030Z,1.20
2023-04-18T20:43:43.600Z,1.30
2023-04-18T20:46:14.200Z,1.30
2023-04-18T20:48:41.484Z,1.20
2023-04-18T20:51:08.688Z,1.60
2023-04-18T20:53:36.208Z,1.40
2023-04-18T20:56:03.267Z,1.10
2023-04-18T20:58:30.441Z,1.60
2023-04-18T21:00:57.433Z,1.40
2023-04-18T21:03:24.801Z,1.20
2023-04-18T21:05:51.920Z,1.50
2023-04-18T21:08:19.363Z,1.20
2023-04-18T21:10:46.397Z,1.30
2023-04-18T21:13:14.190Z,1.20
2023-04-18T21:15:42.104Z,1.60
2023-04-18T21:18:09.113Z,1.20
2023-04-18T21:20:36.929Z,1.50
2023-04-18T21:23:03.813Z,1.30
2023-04-18T21:25:30.779Z,1.60
2023-04-18T21:27:57.622Z,1.40
2023-04-18T21:30:24.848Z,1.50
2023-04-18T21:32:52.024Z,1.40
2023-04-18T21:35:20.731Z,1.80
2023-04-18T21:37:48.213Z,1.50
2023-04-18T21:40:15.334Z,1.60
2023-04-18T21:42:42.424Z,1.60
2023-04-18T21:45:10.179Z,1.50
2023-04-18T21:47:38.353Z,1.40
2023-04-18T21:50:05.960Z,1.20
2023-04-18T21:52:32.871Z,1.60
2023-04-18T21:54:59.876Z,1.30
2023-04-18T21:57:26.773Z,1.40
2023-04-18T21:59:54.698Z,1.20
2023-04-18T22:02:21.720Z,1.30
2023-04-18T22:04:48.713Z,1.40
2023-04-18T22:07:18.641Z,1.50
2023-04-18T22:09:46.433Z,1.60
2023-04-18T22:12:15.958Z,1.50
2023-04-18T22:14:47.807Z,1.50
2023-04-18T22:17:14.809Z,1.80
2023-04-18T22:19:41.736Z,1.60
2023-04-18T22:22:08.593Z,1.40
2023-04-18T22:24:35.602Z,1.70
2023-04-18T22:27:02.906Z,1.60
2023-04-18T22:29:30.338Z,1.70
2023-04-18T22:31:57.223Z,1.40
2023-04-18T22:34:24.059Z,1.20
2023-04-18T22:36:51.010Z,1.60
2023-04-18T22:39:17.970Z,1.50
2023-04-18T22:41:44.869Z,1.10
2023-04-18T22:44:11.705Z,1.80
2023-04-18T22:46:39.018Z,1.30
2023-04-18T22:49:06.317Z,1.80
2023-04-18T22:51:34.255Z,1.30
2023-04-18T22:54:01.140Z,1.40
2023-04-18T22:56:28.043Z,1.30
2023-04-18T22:58:55.030Z,1.50
2023-04-18T23:01:21.891Z,1.20
2023-04-18T23:03:48.988Z,1.60
2023-04-18T23:06:16.384Z,1.40
2023-04-18T23:08:43.252Z,1.70
2023-04-18T23:11:11.206Z,1.30
2023-04-18T23:13:38.340Z,1.40
2023-04-18T23:16:05.751Z,1.50
2023-04-18T23:18:32.860Z,1.30
2023-04-18T23:21:00.161Z,1.30
2023-04-18T23:23:27.038Z,1.20
2023-04-18T23:25:53.850Z,1.30
2023-04-18T23:28:20.928Z,1.50
2023-04-18T23:30:50.142Z,1.20
2023-04-18T23:33:16.958Z,1.20
2023-04-18T23:35:43.839Z,1.20
2023-04-18T23:38:10.764Z,1.10
2023-04-18T23:40:37.680Z,1.20
2023-04-18T23:43:04.817Z,1.20
2023-04-18T23:45:32.085Z,1.00
2023-04-18T23:47:59.072Z,1.10
2023-04-18T23:50:26.090Z,1.20
2023-04-18T23:52:52.956Z,1.10
2023-04-18T23:55:19.837Z,1.20
2023-04-18T23:57:46.703Z,1.10
